Time;durP1;ratioP1;P1;durP2;ratioP2;P2;SDS_P1;SDS_P2;PMS_P1;PMS_P2;Temp;Humidity;BMP_temperature;BMP_pressure;BME280_temperature;BME280_humidity;BME280_pressure;Samples;Min_cycle;Max_cycle;Signal;HPM_P1;HPM_P2
2024/04/24 00:00:39;;;;;;;8.63;1.40;;;5.50;99.90;;;;;;5455834;26;20007;-76
2024/04/24 00:03:06;;;;;;;11.70;1.77;;;5.50;99.90;;;;;;5482167;26;20014;-77
2024/04/24 00:05:31;;;;;;;6.80;1.38;;;5.50;99.90;;;;;;5460080;26;20078;-76
2024/04/24 00:07:57;;;;;;;4.45;1.55;;;5.40;99.90;;;;;;5450774;26;20010;-76
2024/04/24 00:10:23;;;;;;;3.67;1.40;;;5.40;99.90;;;;;;5462868;26;20038;-76
2024/04/24 00:12:49;;;;;;;12.27;1.55;;;5.40;99.90;;;;;;5456476;26;20006;-77
2024/04/24 00:15:15;;;;;;;4.50;1.45;;;5.40;99.90;;;;;;5465250;26;20043;-76
2024/04/24 00:17:41;;;;;;;6.13;1.30;;;5.30;99.90;;;;;;5454340;26;20355;-76
2024/04/24 00:20:07;;;;;;;4.57;1.40;;;5.40;99.90;;;;;;5448705;26;20079;-76
2024/04/24 00:22:33;;;;;;;9.43;1.65;;;5.30;99.90;;;;;;5471384;26;20030;-77
2024/04/24 00:24:59;;;;;;;9.32;1.52;;;6.40;99.90;;;;;;5475535;26;20013;-77
2024/04/24 00:27:26;;;;;;;8.15;1.42;;;5.30;99.90;;;;;;5463704;26;20026;-77
2024/04/24 00:29:52;;;;;;;7.72;1.60;;;5.30;99.90;;;;;;5465953;26;20018;-78
2024/04/24 00:32:18;;;;;;;8.15;1.50;;;5.30;99.90;;;;;;5457162;26;20017;-78
2024/04/24 00:34:44;;;;;;;7.45;1.83;;;5.30;99.90;;;;;;5459011;26;20018;-78
2024/04/24 00:37:09;;;;;;;8.15;1.60;;;5.20;99.90;;;;;;5479275;26;20014;-78
2024/04/24 00:39:35;;;;;;;5.75;1.38;;;5.20;99.90;;;;;;5457495;26;20014;-78
2024/04/24 00:42:01;;;;;;;8.50;1.70;;;5.20;99.90;;;;;;5467411;26;20046;-78
2024/04/24 00:44:26;;;;;;;10.52;1.80;;;5.20;99.90;;;;;;5474695;26;20006;-78
2024/04/24 00:46:52;;;;;;;5.60;1.30;;;5.20;99.90;;;;;;5478273;26;20002;-78
2024/04/24 00:49:20;;;;;;;4.93;1.50;;;5.20;99.90;;;;;;5466013;26;20018;-78
2024/04/24 00:51:47;;;;;;;8.32;1.73;;;5.20;99.90;;;;;;5458854;26;20074;-78
2024/04/24 00:54:13;;;;;;;9.20;2.05;;;5.20;99.90;;;;;;5463161;26;20014;-78
2024/04/24 00:56:39;;;;;;;6.72;1.83;;;5.20;99.90;;;;;;5455754;26;20007;-78
2024/04/24 00:59:04;;;;;;;10.32;1.95;;;5.20;99.90;;;;;;5462919;26;20015;-78
2024/04/24 01:01:30;;;;;;;12.52;1.88;;;5.20;99.90;;;;;;5461469;26;20094;-78
2024/04/24 01:03:56;;;;;;;9.60;2.38;;;5.20;99.90;;;;;;5466789;26;20010;-79
2024/04/24 01:06:22;;;;;;;9.00;1.50;;;5.20;99.90;;;;;;5465850;26;20003;-79
2024/04/24 01:08:47;;;;;;;12.07;1.70;;;5.20;99.90;;;;;;5455204;26;20019;-78
2024/04/24 01:11:13;;;;;;;5.35;1.25;;;5.20;99.90;;;;;;5465019;26;20384;-78
2024/04/24 01:13:39;;;;;;;4.30;1.33;;;5.20;99.90;;;;;;5450563;26;20488;-79
2024/04/24 01:16:19;;;;;;;7.35;1.77;;;5.20;99.90;;;;;;5461991;26;20038;-79
2024/04/24 01:18:54;;;;;;;11.82;1.58;;;5.20;99.90;;;;;;5469173;26;20007;-78
2024/04/24 01:21:23;;;;;;;4.68;1.27;;;5.20;99.90;;;;;;5449518;26;20003;-79
2024/04/24 01:24:22;;;;;;;4.68;1.50;;;5.20;99.90;;;;;;5458734;26;20400;-78
2024/04/24 01:26:50;;;;;;;10.23;1.40;;;5.20;99.90;;;;;;5452626;26;20007;-78
2024/04/24 01:29:16;;;;;;;7.60;1.83;;;5.20;99.90;;;;;;5463684;26;20018;-79
2024/04/24 01:31:42;;;;;;;11.38;2.17;;;5.10;99.90;;;;;;5468279;26;20006;-78
2024/04/24 01:34:08;;;;;;;7.03;1.70;;;5.10;99.90;;;;;;5447145;26;20007;-79
2024/04/24 01:36:34;;;;;;;13.00;2.50;;;5.10;99.90;;;;;;5456073;26;20018;-79
2024/04/24 01:39:00;;;;;;;11.00;2.17;;;5.10;99.90;;;;;;5480032;26;20344;-79
2024/04/24 01:41:26;;;;;;;8.80;1.75;;;5.10;99.90;;;;;;5451097;26;20014;-79
2024/04/24 01:43:52;;;;;;;10.63;1.67;;;5.10;99.90;;;;;;5505966;26;20006;-79
2024/04/24 01:46:17;;;;;;;7.13;1.92;;;5.30;99.90;;;;;;5465900;26;20006;-79
2024/04/24 01:48:43;;;;;;;12.20;2.33;;;5.10;99.90;;;;;;5463395;26;20486;-78
2024/04/24 01:51:09;;;;;;;10.02;2.63;;;5.00;99.90;;;;;;5482017;26;20006;-79
2024/04/24 01:53:35;;;;;;;14.55;1.80;;;4.90;99.90;;;;;;5465250;26;20007;-78
2024/04/24 01:56:01;;;;;;;10.68;2.10;;;4.90;99.90;;;;;;5452364;26;20395;-78
2024/04/24 01:58:27;;;;;;;7.35;1.80;;;4.80;99.90;;;;;;5461541;26;20018;-78
2024/04/24 02:00:52;;;;;;;10.60;1.85;;;4.80;99.90;;;;;;5455042;26;20007;-78
2024/04/24 02:03:18;;;;;;;10.50;1.90;;;4.80;99.90;;;;;;5445565;26;20007;-79
2024/04/24 02:05:44;;;;;;;8.30;1.70;;;4.80;99.90;;;;;;5454735;26;20017;-78
2024/04/24 02:08:09;;;;;;;9.07;1.83;;;4.70;99.90;;;;;;5447538;26;20435;-78
2024/04/24 02:10:35;;;;;;;17.55;2.42;;;4.70;99.90;;;;;;5452347;26;20083;-79
2024/04/24 02:13:01;;;;;;;11.98;1.80;;;4.70;99.90;;;;;;5447079;26;20022;-79
2024/04/24 02:15:27;;;;;;;9.75;1.85;;;4.70;99.90;;;;;;5450583;26;20075;-79
2024/04/24 02:17:52;;;;;;;6.50;1.95;;;4.70;99.90;;;;;;5455111;26;20007;-79
2024/04/24 02:20:18;;;;;;;7.97;2.28;;;4.70;99.90;;;;;;5460539;26;20014;-79
2024/04/24 02:22:44;;;;;;;14.02;1.98;;;4.60;99.90;;;;;;5454506;26;20474;-78
2024/04/24 02:27:54;;;;;;;12.85;2.13;;;4.70;99.90;;;;;;5454132;26;20082;-78
2024/04/24 02:30:20;;;;;;;10.68;2.38;;;4.70;99.90;;;;;;5464588;26;20014;-78
2024/04/24 02:32:46;;;;;;;13.70;2.20;;;4.70;99.90;;;;;;5460561;26;20007;-77
2024/04/24 02:35:12;;;;;;;12.63;1.90;;;4.80;99.90;;;;;;5447970;26;20007;-77
2024/04/24 02:37:38;;;;;;;8.20;1.40;;;4.80;99.90;;;;;;5453486;26;20007;-76
2024/04/24 02:40:04;;;;;;;10.18;1.63;;;4.80;99.90;;;;;;5445110;26;20105;-77
2024/04/24 02:42:30;;;;;;;13.18;1.98;;;4.80;99.90;;;;;;5454302;26;20021;-76
2024/04/24 02:44:56;;;;;;;10.52;1.85;;;5.00;99.90;;;;;;5463052;26;20007;-76
2024/04/24 02:47:21;;;;;;;7.70;1.75;;;4.80;99.90;;;;;;5464955;26;20006;-76
2024/04/24 02:49:47;;;;;;;8.88;1.77;;;4.80;99.90;;;;;;5449117;26;20364;-76
2024/04/24 02:52:13;;;;;;;11.88;1.80;;;4.80;99.90;;;;;;5457502;26;20018;-76
2024/04/24 02:54:38;;;;;;;9.80;1.58;;;5.20;99.90;;;;;;5456542;26;20002;-76
2024/04/24 02:57:05;;;;;;;5.60;1.50;;;4.80;99.90;;;;;;5461429;26;20083;-76
2024/04/24 02:59:30;;;;;;;11.55;1.77;;;4.80;99.90;;;;;;5455365;26;20003;-76
2024/04/24 03:01:56;;;;;;;9.43;1.80;;;4.80;99.90;;;;;;5478234;26;20013;-76
2024/04/24 03:04:22;;;;;;;10.30;1.90;;;4.80;99.90;;;;;;5464220;26;20013;-76
2024/04/24 03:06:47;;;;;;;10.93;1.92;;;4.80;99.90;;;;;;5458141;26;20087;-76
2024/04/24 03:09:13;;;;;;;11.02;1.90;;;4.80;99.90;;;;;;5449833;26;20007;-76
2024/04/24 03:11:39;;;;;;;9.45;1.90;;;4.80;99.90;;;;;;5449071;26;20344;-76
2024/04/24 03:14:19;;;;;;;4.28;1.38;;;5.40;99.90;;;;;;5448402;26;20080;-75
2024/04/24 03:16:45;;;;;;;10.18;1.83;;;4.80;99.90;;;;;;5455080;26;20019;-76
2024/04/24 03:19:11;;;;;;;9.65;1.73;;;4.80;99.90;;;;;;5466036;26;20002;-76
2024/04/24 03:21:37;;;;;;;6.63;1.67;;;5.10;99.90;;;;;;5460321;26;20007;-76
2024/04/24 03:24:03;;;;;;;9.40;1.85;;;4.90;99.90;;;;;;5465572;26;20006;-76
2024/04/24 03:26:29;;;;;;;8.52;1.45;;;4.90;99.90;;;;;;5449016;26;20025;-76
2024/04/24 03:28:56;;;;;;;6.47;1.42;;;4.90;99.90;;;;;;5455810;26;20018;-76
2024/04/24 03:31:22;;;;;;;7.82;1.67;;;5.00;99.90;;;;;;5464957;26;20039;-76
2024/04/24 03:33:47;;;;;;;9.27;1.52;;;5.00;99.90;;;;;;5453041;26;20050;-76
2024/04/24 03:36:13;;;;;;;12.45;2.03;;;5.00;99.90;;;;;;5451567;26;20019;-76
2024/04/24 03:38:41;;;;;;;9.07;1.80;;;5.00;99.90;;;;;;5467108;26;20006;-76
2024/04/24 03:41:06;;;;;;;10.80;1.90;;;5.10;99.90;;;;;;5449701;26;20018;-76
2024/04/24 03:43:32;;;;;;;11.43;2.05;;;5.10;99.90;;;;;;5448612;26;20007;-76
2024/04/24 03:45:58;;;;;;;10.10;1.85;;;5.30;99.90;;;;;;5463760;26;20006;-76
2024/04/24 03:48:23;;;;;;;12.75;1.95;;;5.10;99.90;;;;;;5478670;26;20006;-76
2024/04/24 03:50:49;;;;;;;9.95;1.88;;;5.20;99.90;;;;;;5467439;26;20074;-76
2024/04/24 03:53:17;;;;;;;7.57;1.88;;;5.20;99.90;;;;;;5457419;26;20022;-76
2024/04/24 03:55:43;;;;;;;10.48;1.70;;;5.60;99.90;;;;;;5465558;26;20018;-77
2024/04/24 03:58:09;;;;;;;11.80;1.80;;;5.20;99.90;;;;;;5456893;26;20007;-77
2024/04/24 04:00:35;;;;;;;7.65;1.77;;;5.20;99.90;;;;;;5460563;26;20078;-77
2024/04/24 04:03:01;;;;;;;11.82;1.75;;;5.10;99.90;;;;;;5455723;26;20472;-77
2024/04/24 04:05:27;;;;;;;9.43;1.80;;;5.10;99.90;;;;;;5459179;26;20047;-77
2024/04/24 04:07:59;;;;;;;8.50;1.55;;;5.00;99.90;;;;;;5457710;26;20007;-77
2024/04/24 04:10:25;;;;;;;7.25;1.65;;;5.00;99.90;;;;;;5457780;26;20018;-77
2024/04/24 04:12:50;;;;;;;5.13;1.52;;;4.90;99.90;;;;;;5476108;26;20002;-77
2024/04/24 04:15:17;;;;;;;9.40;1.70;;;4.90;99.90;;;;;;5447955;26;20035;-77
2024/04/24 04:17:46;;;;;;;5.65;1.50;;;4.90;99.90;;;;;;5465266;26;20002;-77
2024/04/24 04:20:12;;;;;;;9.63;1.75;;;4.90;99.90;;;;;;5454434;26;20006;-77
2024/04/24 04:22:38;;;;;;;7.10;1.50;;;5.00;99.90;;;;;;5459665;26;20459;-77
2024/04/24 04:25:04;;;;;;;9.05;1.88;;;4.80;99.90;;;;;;5453941;26;20013;-77
2024/04/24 04:27:31;;;;;;;7.75;1.70;;;4.80;99.90;;;;;;5461327;26;20010;-77
2024/04/24 04:29:57;;;;;;;8.10;2.17;;;4.80;99.90;;;;;;5464384;26;20703;-77
2024/04/24 04:32:23;;;;;;;8.15;1.50;;;4.80;99.90;;;;;;5458190;26;20018;-77
2024/04/24 04:34:49;;;;;;;8.38;1.60;;;4.80;99.90;;;;;;5445505;26;20027;-77
2024/04/24 04:37:14;;;;;;;7.43;1.80;;;4.80;99.90;;;;;;5456012;26;20013;-77
2024/04/24 04:39:40;;;;;;;11.00;1.80;;;4.80;99.90;;;;;;5473952;26;20351;-77
2024/04/24 04:42:06;;;;;;;9.55;1.77;;;4.80;99.90;;;;;;5472979;26;20003;-77
2024/04/24 04:44:31;;;;;;;8.00;1.75;;;4.80;99.90;;;;;;5447848;26;20006;-77
2024/04/24 04:46:57;;;;;;;9.50;1.90;;;4.90;99.90;;;;;;5451523;26;20006;-77
2024/04/24 04:49:23;;;;;;;6.13;1.88;;;4.70;99.90;;;;;;5447786;26;20019;-77
2024/04/24 04:51:48;;;;;;;9.55;2.00;;;4.70;99.90;;;;;;5450523;26;20014;-77
2024/04/24 04:54:14;;;;;;;14.38;2.50;;;4.80;99.90;;;;;;5463847;26;20111;-77
2024/04/24 04:56:40;;;;;;;10.05;2.13;;;4.80;99.90;;;;;;5457598;26;20007;-77
2024/04/24 04:59:07;;;;;;;12.90;1.85;;;4.80;99.90;;;;;;5458950;26;20021;-77
2024/04/24 05:01:32;;;;;;;12.15;2.45;;;4.80;99.90;;;;;;5457931;26;20425;-77
2024/04/24 05:03:58;;;;;;;12.25;2.78;;;4.80;99.90;;;;;;5453438;26;20017;-77
2024/04/24 05:06:24;;;;;;;10.07;1.83;;;4.80;99.90;;;;;;5470946;26;20531;-77
2024/04/24 05:08:50;;;;;;;14.45;2.30;;;4.80;99.90;;;;;;5449839;26;20018;-77
2024/04/24 05:11:15;;;;;;;7.50;2.05;;;4.80;99.90;;;;;;5473958;26;20006;-77
2024/04/24 05:13:41;;;;;;;11.30;2.47;;;4.90;99.90;;;;;;5453762;26;20022;-77
2024/04/24 05:16:13;;;;;;;13.40;2.58;;;4.80;99.90;;;;;;5457905;26;20014;-77
2024/04/24 05:18:39;;;;;;;11.52;2.20;;;4.90;99.90;;;;;;5449038;26;20006;-77
2024/04/24 05:21:08;;;;;;;10.55;2.20;;;4.90;99.90;;;;;;5454539;26;20029;-77
2024/04/24 05:23:34;;;;;;;12.70;2.50;;;4.90;99.90;;;;;;5468949;26;20078;-77
2024/04/24 05:29:03;;;;;;;14.18;2.20;;;4.90;99.90;;;;;;5462579;26;20014;-77
2024/04/24 05:31:32;;;;;;;13.07;2.42;;;5.00;99.90;;;;;;5454001;26;20543;-77
2024/04/24 05:33:58;;;;;;;12.93;2.40;;;5.00;99.90;;;;;;5448793;26;20007;-77
2024/04/24 05:36:23;;;;;;;12.40;2.30;;;5.10;99.90;;;;;;5453076;26;20015;-77
2024/04/24 05:38:49;;;;;;;13.40;2.72;;;5.10;99.90;;;;;;5463017;26;20082;-77
2024/04/24 05:41:15;;;;;;;15.82;3.10;;;5.10;99.90;;;;;;5448483;26;20006;-77
2024/04/24 05:43:40;;;;;;;14.40;2.58;;;5.20;99.90;;;;;;5462431;26;20086;-77
2024/04/24 05:46:06;;;;;;;12.15;2.30;;;5.20;99.90;;;;;;5446760;26;20015;-77
2024/04/24 05:48:32;;;;;;;18.60;2.40;;;5.20;99.90;;;;;;5450899;26;20017;-77
2024/04/24 05:50:57;;;;;;;14.63;2.50;;;5.20;99.90;;;;;;5459741;26;20012;-77
2024/04/24 05:53:23;;;;;;;12.98;2.55;;;5.30;99.90;;;;;;5457098;26;20022;-77
2024/04/24 05:55:49;;;;;;;14.43;3.05;;;5.30;99.90;;;;;;5469024;26;20042;-77
2024/04/24 05:58:14;;;;;;;9.32;2.30;;;5.40;99.90;;;;;;5454898;26;20857;-77
2024/04/24 06:00:40;;;;;;;12.27;2.28;;;5.40;99.90;;;;;;5447419;26;20007;-77
2024/04/24 06:03:09;;;;;;;9.55;2.30;;;5.40;99.90;;;;;;5453223;26;20155;-77
2024/04/24 06:05:35;;;;;;;10.57;1.90;;;5.50;99.90;;;;;;5458087;26;20010;-77
2024/04/24 06:08:00;;;;;;;6.75;1.40;;;5.50;99.90;;;;;;5450794;26;20099;-77
2024/04/24 06:10:26;;;;;;;8.48;1.60;;;5.50;99.90;;;;;;5467399;26;20006;-77
2024/04/24 06:12:52;;;;;;;9.93;1.80;;;5.50;99.90;;;;;;5463898;26;20014;-77
2024/04/24 06:15:17;;;;;;;4.75;1.30;;;5.50;99.90;;;;;;5454426;26;20007;-77
2024/04/24 06:17:43;;;;;;;7.55;1.85;;;5.50;99.90;;;;;;5462323;26;20460;-77
2024/04/24 06:20:14;;;;;;;9.63;2.38;;;5.50;99.90;;;;;;5458787;26;20006;-77
2024/04/24 06:22:41;;;;;;;7.05;1.98;;;5.50;99.90;;;;;;5449651;26;20727;-77
2024/04/24 06:25:07;;;;;;;8.27;1.75;;;5.50;99.90;;;;;;5452833;26;20003;-77
2024/04/24 06:27:33;;;;;;;6.35;1.60;;;5.50;99.90;;;;;;5449930;26;20019;-77
2024/04/24 06:29:59;;;;;;;9.00;1.80;;;5.60;99.90;;;;;;5462940;26;19999;-77
2024/04/24 06:32:25;;;;;;;7.18;1.67;;;5.60;99.90;;;;;;5459469;26;20351;-77
2024/04/24 06:34:51;;;;;;;6.75;1.60;;;5.60;99.90;;;;;;5452342;26;20418;-77
2024/04/24 06:37:17;;;;;;;7.75;1.55;;;5.70;99.90;;;;;;5449956;26;20007;-77
2024/04/24 06:39:42;;;;;;;9.98;1.75;;;5.70;99.90;;;;;;5461636;26;20007;-77
2024/04/24 06:42:08;;;;;;;9.57;1.70;;;5.80;99.90;;;;;;5455549;26;20017;-77
2024/04/24 06:44:37;;;;;;;8.80;1.85;;;5.80;99.90;;;;;;5459829;26;20015;-77
2024/04/24 06:47:03;;;;;;;5.60;1.70;;;5.90;99.90;;;;;;5464522;26;20528;-77
2024/04/24 06:49:29;;;;;;;9.02;1.80;;;5.90;99.90;;;;;;5458020;26;20475;-77
2024/04/24 06:51:55;;;;;;;10.43;1.95;;;6.00;99.90;;;;;;5465240;26;20046;-77
2024/04/24 06:54:21;;;;;;;7.45;2.03;;;6.00;99.90;;;;;;5474043;26;20017;-77
2024/04/24 06:56:46;;;;;;;7.05;1.77;;;6.00;99.90;;;;;;5459562;26;20448;-77
2024/04/24 06:59:12;;;;;;;13.95;1.90;;;6.00;99.90;;;;;;5460643;26;20017;-77
2024/04/24 07:01:38;;;;;;;7.15;1.73;;;6.30;99.90;;;;;;5455790;26;20007;-77
2024/04/24 07:04:03;;;;;;;4.93;1.38;;;6.00;99.90;;;;;;5467445;26;20022;-77
2024/04/24 07:06:29;;;;;;;5.43;1.48;;;6.00;99.90;;;;;;5448185;26;20343;-77
2024/04/24 07:08:55;;;;;;;6.13;1.55;;;6.10;99.90;;;;;;5455801;26;20013;-77
2024/04/24 07:11:20;;;;;;;6.78;1.73;;;6.20;99.90;;;;;;5469613;26;20006;-77
2024/04/24 07:13:46;;;;;;;6.15;1.58;;;6.30;99.90;;;;;;5471479;26;22156;-77
2024/04/24 07:16:12;;;;;;;8.45;1.55;;;6.30;99.90;;;;;;5457477;26;20079;-77
2024/04/24 07:18:37;;;;;;;4.18;1.50;;;6.40;99.90;;;;;;5450108;26;20035;-77
2024/04/24 07:21:03;;;;;;;8.02;1.55;;;6.40;99.90;;;;;;5456113;26;20046;-77
2024/04/24 07:23:29;;;;;;;4.88;1.75;;;6.60;99.90;;;;;;5460720;26;20010;-77
2024/04/24 07:25:56;;;;;;;5.95;1.67;;;6.70;99.90;;;;;;5452822;26;20078;-77
2024/04/24 07:28:21;;;;;;;9.20;2.17;;;6.70;99.90;;;;;;5457459;26;20463;-77
2024/04/24 07:30:48;;;;;;;6.57;2.03;;;6.70;99.90;;;;;;5465927;26;20013;-77
2024/04/24 07:33:14;;;;;;;5.53;1.60;;;7.10;99.90;;;;;;5468564;26;20739;-77
2024/04/24 07:35:40;;;;;;;8.07;2.08;;;6.80;99.90;;;;;;5471032;26;20006;-77
2024/04/24 07:38:06;;;;;;;2.75;1.40;;;6.80;99.90;;;;;;5459932;26;20013;-77
2024/04/24 07:40:32;;;;;;;6.85;1.50;;;6.80;99.90;;;;;;5458738;26;20006;-77
2024/04/24 07:42:57;;;;;;;3.03;1.50;;;6.80;99.90;;;;;;5454505;26;20007;-77
2024/04/24 07:45:23;;;;;;;4.63;1.15;;;6.70;99.90;;;;;;5470140;26;20082;-77
2024/04/24 07:47:49;;;;;;;3.70;1.13;;;6.80;99.90;;;;;;5483548;26;20033;-77
2024/04/24 07:50:14;;;;;;;5.97;1.65;;;6.80;99.90;;;;;;5467998;26;20006;-77
2024/04/24 07:52:40;;;;;;;4.03;0.95;;;6.80;99.90;;;;;;5483924;26;20463;-76
2024/04/24 07:55:06;;;;;;;2.65;1.00;;;6.70;99.90;;;;;;5466551;26;20539;-77
2024/04/24 07:57:32;;;;;;;4.40;1.02;;;6.70;99.90;;;;;;5472501;26;20019;-77
2024/04/24 07:59:57;;;;;;;1.38;0.77;;;6.70;99.90;;;;;;5454553;26;20014;-77
2024/04/24 08:02:23;;;;;;;2.33;0.73;;;6.70;99.90;;;;;;5467545;26;20523;-77
2024/04/24 08:04:49;;;;;;;4.20;1.13;;;6.70;99.90;;;;;;5452158;26;20018;-77
2024/04/24 08:07:15;;;;;;;5.50;1.25;;;6.70;99.90;;;;;;5454005;26;20006;-77
2024/04/24 08:09:41;;;;;;;1.98;1.00;;;6.70;99.90;;;;;;5458187;26;20746;-77
2024/04/24 08:12:07;;;;;;;4.85;1.15;;;6.80;99.90;;;;;;5465159;26;20111;-77
2024/04/24 08:14:32;;;;;;;3.25;1.00;;;7.00;99.90;;;;;;5449065;26;20015;-77
2024/04/24 08:16:58;;;;;;;2.35;0.88;;;7.10;99.90;;;;;;5450086;26;20006;-77
2024/04/24 08:19:24;;;;;;;4.28;0.90;;;7.20;99.90;;;;;;5448131;26;20372;-77
2024/04/24 08:21:49;;;;;;;5.63;1.17;;;7.20;99.90;;;;;;5472616;26;20021;-77
2024/04/24 08:24:15;;;;;;;5.05;1.10;;;7.20;99.90;;;;;;5453386;26;20002;-77
2024/04/24 08:26:41;;;;;;;2.50;1.10;;;7.30;99.90;;;;;;5458350;26;20022;-78
2024/04/24 08:29:06;;;;;;;3.08;1.25;;;7.50;99.90;;;;;;5461561;26;20019;-77
2024/04/24 08:31:33;;;;;;;5.15;1.10;;;7.40;99.90;;;;;;5467563;26;20016;-77
2024/04/24 08:33:59;;;;;;;5.22;1.27;;;7.50;99.90;;;;;;5463269;26;20006;-77
2024/04/24 08:36:24;;;;;;;7.18;1.65;;;7.60;99.90;;;;;;5451203;26;20002;-77
2024/04/24 08:38:50;;;;;;;3.80;1.02;;;7.90;99.90;;;;;;5447932;26;20018;-77
2024/04/24 08:41:16;;;;;;;6.57;1.10;;;8.00;99.90;;;;;;5448999;26;20329;-76
2024/04/24 08:43:46;;;;;;;5.90;1.30;;;8.10;99.90;;;;;;5458794;26;20343;-76
2024/04/24 08:46:12;;;;;;;7.35;1.50;;;8.20;99.90;;;;;;5463268;26;20343;-76
2024/04/24 08:48:42;;;;;;;5.85;1.30;;;8.10;99.90;;;;;;5460066;26;20013;-77
2024/04/24 08:51:10;;;;;;;4.50;1.35;;;8.00;99.90;;;;;;5475554;26;20022;-77
2024/04/24 08:53:36;;;;;;;3.55;0.82;;;7.80;99.90;;;;;;5454950;26;20006;-77
2024/04/24 08:56:07;;;;;;;2.70;0.80;;;7.60;99.90;;;;;;5460971;26;20360;-77
2024/04/24 08:58:36;;;;;;;2.78;0.90;;;7.50;99.90;;;;;;5477879;26;20890;-77
2024/04/24 09:01:11;;;;;;;5.18;1.00;;;7.40;99.90;;;;;;5458885;26;20022;-77
2024/04/24 09:03:41;;;;;;;2.15;0.75;;;7.40;99.90;;;;;;5466100;26;20021;-77
2024/04/24 09:06:09;;;;;;;1.67;0.90;;;7.30;99.90;;;;;;5462721;26;20007;-77
2024/04/24 09:08:36;;;;;;;4.80;1.00;;;7.40;99.90;;;;;;5453043;26;20003;-77
2024/04/24 09:11:02;;;;;;;4.50;1.35;;;7.40;99.90;;;;;;5447890;26;20007;-77
2024/04/24 09:13:32;;;;;;;3.45;0.88;;;7.50;99.90;;;;;;5455646;26;20470;-77
2024/04/24 09:15:59;;;;;;;3.55;0.98;;;7.80;99.90;;;;;;5449135;26;20011;-77
2024/04/24 09:18:25;;;;;;;4.50;1.20;;;8.10;99.90;;;;;;5451196;26;20076;-77
2024/04/24 09:20:52;;;;;;;4.32;1.27;;;8.30;99.90;;;;;;5481172;26;20020;-77
2024/04/24 09:23:24;;;;;;;2.45;1.10;;;8.40;99.90;;;;;;5448324;26;20007;-77
2024/04/24 09:25:51;;;;;;;4.88;1.25;;;8.50;99.90;;;;;;5455832;26;20007;-77
2024/04/24 09:28:20;;;;;;;2.47;0.95;;;8.40;99.90;;;;;;5475443;26;20007;-77
2024/04/24 09:30:45;;;;;;;5.68;1.08;;;8.50;99.90;;;;;;5457829;26;20006;-77
2024/04/24 09:33:12;;;;;;;3.78;1.27;;;8.60;99.90;;;;;;5462298;26;20629;-77
2024/04/24 09:35:38;;;;;;;7.18;1.25;;;8.70;99.90;;;;;;5484304;26;20006;-77
2024/04/24 09:38:08;;;;;;;5.30;1.30;;;8.80;99.90;;;;;;5483543;26;20762;-77
2024/04/24 09:40:34;;;;;;;7.28;1.20;;;8.90;99.90;;;;;;5456552;26;20007;-77
2024/04/24 09:43:00;;;;;;;8.30;1.40;;;8.90;99.90;;;;;;5452722;26;20007;-77
2024/04/24 09:45:27;;;;;;;6.75;1.40;;;8.90;99.90;;;;;;5472300;26;20012;-77
2024/04/24 09:47:53;;;;;;;8.68;1.95;;;8.80;99.90;;;;;;5474279;26;20012;-77
2024/04/24 09:50:19;;;;;;;5.28;1.30;;;8.70;99.90;;;;;;5466771;26;20006;-77
2024/04/24 09:52:48;;;;;;;7.13;1.50;;;8.70;99.90;;;;;;5465279;26;20452;-77
2024/04/24 09:55:14;;;;;;;7.40;1.58;;;8.70;99.90;;;;;;5473461;26;20039;-77
2024/04/24 09:57:44;;;;;;;5.88;1.48;;;8.90;99.90;;;;;;5482113;26;20006;-77
2024/04/24 10:00:14;;;;;;;8.27;1.70;;;9.30;99.90;;;;;;5459172;26;20003;-77
2024/04/24 10:02:43;;;;;;;6.30;1.30;;;9.70;99.90;;;;;;5467416;26;20022;-77
2024/04/24 10:05:14;;;;;;;3.50;0.95;;;9.90;99.90;;;;;;5463543;26;20033;-77
2024/04/24 10:07:51;;;;;;;8.75;1.52;;;10.30;99.90;;;;;;5466161;26;20003;-77
2024/04/24 10:10:18;;;;;;;8.95;1.90;;;9.90;99.90;;;;;;5464211;26;20007;-77
2024/04/24 10:12:47;;;;;;;6.47;1.35;;;9.80;99.90;;;;;;5457664;26;20017;-77
2024/04/24 10:15:18;;;;;;;7.40;1.65;;;9.70;99.90;;;;;;5459709;26;20074;-77
2024/04/24 10:17:45;;;;;;;9.32;1.85;;;9.60;99.90;;;;;;5470922;26;20017;-77
2024/04/24 10:20:11;;;;;;;7.15;1.80;;;9.50;99.90;;;;;;5468246;26;20017;-77
2024/04/24 10:22:38;;;;;;;4.75;1.35;;;9.40;99.90;;;;;;5457704;26;20018;-77
2024/04/24 10:25:05;;;;;;;6.80;1.50;;;9.60;99.90;;;;;;5456432;26;20068;-77
2024/04/24 10:27:36;;;;;;;6.30;1.55;;;9.70;99.90;;;;;;5461854;26;20017;-77
2024/04/24 10:30:02;;;;;;;3.55;1.15;;;9.70;99.90;;;;;;5455169;26;20057;-77
2024/04/24 10:32:31;;;;;;;6.75;1.50;;;9.60;99.90;;;;;;5471201;26;20006;-77
2024/04/24 10:34:59;;;;;;;8.85;1.58;;;9.50;99.90;;;;;;5456025;26;20002;-77
2024/04/24 10:37:25;;;;;;;4.78;1.60;;;9.50;99.90;;;;;;5457501;26;20039;-77
2024/04/24 10:39:51;;;;;;;7.43;1.80;;;9.40;99.90;;;;;;5460698;26;20455;-77
2024/04/24 10:42:17;;;;;;;9.75;1.70;;;9.50;99.90;;;;;;5456210;26;20022;-77
2024/04/24 10:44:45;;;;;;;7.75;1.50;;;9.80;99.90;;;;;;5449622;26;20006;-77
2024/04/24 10:47:13;;;;;;;10.05;2.05;;;10.10;99.90;;;;;;5467704;26;20014;-77
2024/04/24 10:49:56;;;;;;;6.43;1.80;;;10.20;99.90;;;;;;5459548;26;20079;-77
2024/04/24 10:52:23;;;;;;;8.90;1.98;;;10.20;99.90;;;;;;5452796;26;20014;-76
2024/04/24 10:54:49;;;;;;;8.43;1.85;;;10.00;99.90;;;;;;5462388;26;20078;-77
2024/04/24 10:57:15;;;;;;;5.15;1.48;;;9.90;99.90;;;;;;5463580;26;20007;-77
2024/04/24 10:59:45;;;;;;;6.40;1.67;;;9.80;99.90;;;;;;5463504;26;20014;-77
2024/04/24 11:02:17;;;;;;;5.35;1.40;;;9.70;99.90;;;;;;5463996;26;20017;-77
2024/04/24 11:04:44;;;;;;;9.02;1.70;;;9.80;99.90;;;;;;5454821;26;20018;-77
2024/04/24 11:07:10;;;;;;;5.20;1.45;;;10.00;99.90;;;;;;5452685;26;20015;-77
2024/04/24 11:09:38;;;;;;;7.10;1.10;;;10.30;99.90;;;;;;5470554;26;20024;-77
2024/04/24 11:12:07;;;;;;;8.93;1.20;;;10.60;99.90;;;;;;5459803;26;20047;-77
2024/04/24 11:14:42;;;;;;;;;;;11.00;99.90;;;;;;5466422;26;20003;-77
2024/04/24 11:17:08;;;;;;;6.13;1.45;;;11.30;99.90;;;;;;5459311;26;20258;-77
2024/04/24 11:19:33;;;;;;;5.82;1.10;;;11.60;99.90;;;;;;5464863;26;20014;-77
2024/04/24 11:22:00;;;;;;;5.65;1.35;;;11.70;99.90;;;;;;5454220;26;20079;-77
2024/04/24 11:24:33;;;;;;;4.95;0.90;;;11.70;99.90;;;;;;5461990;26;20479;-77
2024/04/24 11:27:01;;;;;;;1.10;0.40;;;11.60;99.90;;;;;;5456699;26;20086;-78
2024/04/24 11:29:35;;;;;;;5.10;0.63;;;11.70;99.90;;;;;;5452911;26;20079;-78
2024/04/24 11:32:01;;;;;;;4.57;0.60;;;11.60;99.90;;;;;;5471615;26;20017;-77
2024/04/24 11:34:27;;;;;;;4.35;0.80;;;11.60;99.90;;;;;;5459386;26;20875;-77
2024/04/24 11:36:54;;;;;;;;;;;11.80;99.90;;;;;;5467407;26;20002;-77
2024/04/24 11:39:22;;;;;;;;;;;11.90;99.90;;;;;;5458246;26;20261;-77
2024/04/24 11:41:51;;;;;;;;;;;12.10;99.90;;;;;;5465076;26;19932;-77
2024/04/24 11:44:17;;;;;;;;;;;12.20;99.90;;;;;;5470027;26;19993;-77
2024/04/24 11:46:46;;;;;;;6.72;1.00;;;12.30;99.90;;;;;;5461066;26;19932;-78
2024/04/24 11:49:13;;;;;;;5.95;1.02;;;12.50;99.90;;;;;;5464648;26;20014;-77
2024/04/24 11:51:39;;;;;;;4.40;0.98;;;12.50;99.90;;;;;;5458983;26;20084;-78
2024/04/24 11:54:05;;;;;;;2.58;0.73;;;12.40;99.90;;;;;;5464144;26;20007;-77
2024/04/24 11:56:36;;;;;;;2.40;0.70;;;12.30;99.90;;;;;;5458803;26;20087;-77
2024/04/24 11:59:03;;;;;;;3.90;0.97;;;12.10;99.90;;;;;;5449212;26;20003;-77
2024/04/24 12:01:31;;;;;;;2.92;0.90;;;12.00;99.90;;;;;;5459776;26;20375;-77
2024/04/24 12:03:57;;;;;;;3.20;0.85;;;12.00;99.90;;;;;;5456209;26;20007;-77
2024/04/24 12:06:23;;;;;;;5.00;1.00;;;11.80;99.90;;;;;;5457473;26;20021;-77
2024/04/24 12:08:49;;;;;;;4.80;0.98;;;11.80;99.90;;;;;;5450869;26;20007;-78
2024/04/24 12:11:15;;;;;;;3.67;0.98;;;11.80;99.90;;;;;;5459179;26;20044;-77
2024/04/24 12:13:42;;;;;;;3.80;0.85;;;11.90;99.90;;;;;;5455666;26;20007;-77
2024/04/24 12:16:08;;;;;;;4.95;1.13;;;12.00;99.90;;;;;;5453693;26;20456;-77
2024/04/24 12:18:34;;;;;;;4.45;0.77;;;11.90;99.90;;;;;;5482876;26;20006;-77
2024/04/24 12:20:59;;;;;;;6.90;1.20;;;11.90;99.90;;;;;;5468085;26;20344;-77
2024/04/24 12:23:27;;;;;;;4.93;0.90;;;12.00;99.90;;;;;;5459126;26;20347;-77
2024/04/24 12:25:53;;;;;;;3.63;0.80;;;12.10;99.90;;;;;;5453876;26;20017;-77
2024/04/24 12:28:20;;;;;;;3.35;0.80;;;12.30;99.90;;;;;;5453709;26;20543;-77
2024/04/24 12:30:46;;;;;;;3.88;0.73;;;12.50;99.90;;;;;;5454136;26;20017;-77
2024/04/24 12:33:12;;;;;;;2.42;0.70;;;12.70;99.90;;;;;;5473994;26;20018;-77
2024/04/24 12:35:38;;;;;;;2.92;1.10;;;12.80;99.90;;;;;;5451688;26;20006;-77
2024/04/24 12:38:04;;;;;;;5.40;1.20;;;12.90;99.90;;;;;;5458084;26;20017;-77
2024/04/24 12:40:30;;;;;;;2.50;1.10;;;12.70;99.90;;;;;;5460147;26;20007;-78
2024/04/24 12:42:59;;;;;;;5.85;1.30;;;12.50;99.90;;;;;;5457401;26;20006;-78
2024/04/24 12:45:25;;;;;;;4.60;1.45;;;12.10;99.90;;;;;;5461478;26;20021;-77
2024/04/24 12:47:52;;;;;;;8.43;1.70;;;11.80;99.90;;;;;;5453562;26;20010;-77
2024/04/24 12:50:18;;;;;;;10.48;1.80;;;11.40;99.90;;;;;;5464352;26;20002;-77
2024/04/24 12:52:44;;;;;;;8.73;2.30;;;11.50;99.90;;;;;;5460560;26;20455;-77
2024/04/24 12:55:10;;;;;;;8.32;2.28;;;10.90;99.90;;;;;;5466148;26;20018;-77
2024/04/24 12:57:37;;;;;;;4.30;2.03;;;10.70;99.90;;;;;;5463955;26;20388;-77